Time;durP1;ratioP1;P1;durP2;ratioP2;P2;SDS_P1;SDS_P2;PMS_P1;PMS_P2;Temp;Humidity;BMP_temperature;BMP_pressure;BME280_temperature;BME280_humidity;BME280_pressure;Samples;Min_cycle;Max_cycle;Signal;HPM_P1;HPM_P2
2023/03/17 00:00:30;;;;;;;1.63;1.20;;;;;;;15.06;38.53;100622.91;4973249;28;20055;-62
2023/03/17 00:02:58;;;;;;;2.60;1.42;;;;;;;15.06;38.94;100628.31;4974746;28;20038;-62
2023/03/17 00:05:26;;;;;;;3.70;1.77;;;;;;;15.09;38.93;100632.53;4973855;28;20066;-62
2023/03/17 00:07:54;;;;;;;2.97;1.80;;;;;;;15.13;38.60;100623.13;4973770;28;20047;-62
2023/03/17 00:10:22;;;;;;;3.20;1.30;;;;;;;15.20;38.64;100639.47;4973948;28;20038;-62
2023/03/17 00:12:54;;;;;;;1.98;1.55;;;;;;;15.20;39.15;100640.31;4973951;28;20114;-62
2023/03/17 00:15:21;;;;;;;7.90;1.40;;;;;;;15.20;39.06;100634.94;4957720;28;20026;-62
2023/03/17 00:17:47;;;;;;;2.95;1.75;;;;;;;15.19;37.87;100629.72;4974201;28;20026;-62
2023/03/17 00:20:22;;;;;;;6.68;1.50;;;;;;;15.16;38.67;100607.44;4973357;28;20074;-62
2023/03/17 00:22:47;;;;;;;2.08;1.23;;;;;;;15.08;38.64;100587.66;4973668;28;20034;-62
2023/03/17 00:25:19;;;;;;;4.00;1.40;;;;;;;15.07;37.93;100577.91;4972583;28;20035;-62
2023/03/17 00:27:45;;;;;;;3.20;1.50;;;;;;;15.14;37.94;100581.63;4990759;28;20035;-62
2023/03/17 00:30:11;;;;;;;1.38;1.10;;;;;;;15.13;39.26;100574.56;4975177;28;20046;-62
2023/03/17 00:32:37;;;;;;;3.28;1.27;;;;;;;15.11;38.19;100566.59;4971692;28;20042;-62
2023/03/17 00:35:04;;;;;;;2.20;1.27;;;;;;;15.10;38.10;100574.88;4972175;28;20170;-62
2023/03/17 00:37:30;;;;;;;1.40;0.90;;;;;;;15.05;38.19;100561.00;4972243;28;20038;-62
2023/03/17 00:39:55;;;;;;;2.00;1.00;;;;;;;15.14;38.09;100573.53;4955715;28;20407;-62
2023/03/17 00:42:22;;;;;;;1.80;0.80;;;;;;;15.16;38.72;100585.00;4956375;28;20394;-62
2023/03/17 00:44:47;;;;;;;1.80;0.70;;;;;;;15.23;38.58;100569.84;4955906;28;20110;-62
2023/03/17 00:47:12;;;;;;;1.10;0.80;;;;;;;15.37;38.03;100566.50;4972084;28;20186;-62
2023/03/17 00:49:38;;;;;;;1.55;0.90;;;;;;;15.43;38.61;100565.84;4985294;28;20031;-62
2023/03/17 00:52:04;;;;;;;0.82;0.57;;;;;;;15.49;38.69;100567.91;4953174;28;20450;-63
2023/03/17 00:54:30;;;;;;;2.67;0.70;;;;;;;15.57;38.10;100573.31;4954489;28;20059;-62
2023/03/17 00:56:55;;;;;;;2.75;1.02;;;;;;;15.57;37.97;100559.81;4952765;28;20042;-63
2023/03/17 00:59:29;;;;;;;2.45;0.40;;;;;;;15.71;37.98;100575.34;4937307;28;20792;-62
2023/03/17 01:01:55;;;;;;;0.95;0.60;;;;;;;15.80;38.45;100581.56;4953550;28;20035;-62
2023/03/17 01:04:21;;;;;;;1.88;0.40;;;;;;;15.90;38.59;100584.09;4954185;28;20035;-62
2023/03/17 01:06:47;;;;;;;0.90;0.60;;;;;;;15.91;37.92;100567.75;4938263;29;20031;-61
2023/03/17 01:09:15;;;;;;;0.95;0.50;;;;;;;16.09;38.40;100584.59;4953693;28;20044;-62
2023/03/17 01:11:40;;;;;;;1.10;0.50;;;;;;;16.20;38.25;100575.28;4937681;28;20376;-63
2023/03/17 01:14:06;;;;;;;1.20;0.70;;;;;;;16.23;36.98;100561.44;4953681;28;20039;-63
2023/03/17 01:16:31;;;;;;;1.65;0.50;;;;;;;16.42;37.42;100577.28;4953403;28;20082;-62
2023/03/17 01:18:57;;;;;;;1.98;0.85;;;;;;;16.53;38.09;100586.88;4937648;28;20112;-62
2023/03/17 01:21:22;;;;;;;0.40;0.40;;;;;;;16.62;36.96;100581.31;4953925;29;20038;-63
2023/03/17 01:23:48;;;;;;;1.80;0.50;;;;;;;16.71;36.40;100577.56;4953286;28;20039;-62
2023/03/17 01:26:13;;;;;;;0.88;0.65;;;;;;;16.79;36.79;100571.25;4937436;28;20130;-62
2023/03/17 01:28:39;;;;;;;1.02;0.50;;;;;;;16.86;36.40;100564.97;4953286;28;20031;-62
2023/03/17 01:31:04;;;;;;;0.68;0.45;;;;;;;16.92;35.93;100568.84;4953477;28;20054;-62
2023/03/17 01:33:29;;;;;;;0.82;0.50;;;;;;;16.93;36.00;100554.28;4937852;29;20509;-62
2023/03/17 01:35:55;;;;;;;0.85;0.60;;;;;;;16.92;36.19;100541.78;4937590;28;20123;-62
2023/03/17 01:38:21;;;;;;;1.27;0.93;;;;;;;16.96;36.08;100534.16;4937239;28;20062;-62
2023/03/17 01:40:49;;;;;;;0.70;0.50;;;;;;;17.03;36.73;100548.69;4921472;29;20043;-62
2023/03/17 01:43:18;;;;;;;0.98;0.50;;;;;;;17.03;36.34;100552.19;4937379;28;20032;-62
2023/03/17 01:46:15;;;;;;;4.68;1.30;;;;;;;17.04;35.99;100550.34;4957368;28;20027;-62
2023/03/17 01:49:11;;;;;;;0.88;0.55;;;;;;;16.98;35.73;100551.03;4958387;28;20031;-62
2023/03/17 01:51:46;;;;;;;1.38;0.70;;;;;;;16.93;35.42;100553.44;4957070;29;20121;-62
2023/03/17 01:54:33;;;;;;;1.83;0.63;;;;;;;16.91;36.57;100552.78;4953537;28;20060;-62
2023/03/17 01:57:03;;;;;;;0.73;0.73;;;;;;;16.86;36.55;100545.22;4953504;28;20040;-62
2023/03/17 01:59:33;;;;;;;1.63;1.02;;;;;;;16.85;35.50;100555.19;4950584;28;20031;-62
2023/03/17 02:02:03;;;;;;;4.78;0.80;;;;;;;16.86;35.75;100546.03;4956925;28;20055;-62
2023/03/17 02:04:28;;;;;;;0.88;0.50;;;;;;;16.85;35.50;100541.66;4940642;28;20050;-62
2023/03/17 02:06:54;;;;;;;1.00;0.60;;;;;;;16.87;36.35;100541.47;4940681;28;20031;-62
2023/03/17 02:09:20;;;;;;;2.72;0.95;;;;;;;16.80;36.17;100530.53;4941077;29;20102;-62
2023/03/17 02:11:45;;;;;;;1.20;0.50;;;;;;;16.89;35.90;100528.59;4940592;28;20035;-62
2023/03/17 02:14:11;;;;;;;2.17;0.70;;;;;;;16.85;35.62;100528.13;4940566;28;20450;-62
2023/03/17 02:16:36;;;;;;;0.50;0.50;;;;;;;16.84;36.23;100521.03;4956688;28;20037;-62
2023/03/17 02:19:02;;;;;;;3.83;0.77;;;;;;;16.72;36.45;100503.50;4975531;28;20034;-63
2023/03/17 02:21:33;;;;;;;0.95;0.50;;;;;;;16.83;35.83;100519.31;4992620;28;20467;-62
2023/03/17 02:24:01;;;;;;;1.00;0.60;;;;;;;16.82;36.15;100520.38;4975834;28;20042;-62
2023/03/17 02:26:30;;;;;;;1.67;0.70;;;;;;;16.81;35.37;100524.09;4991787;28;20054;-62
2023/03/17 02:28:55;;;;;;;0.98;0.60;;;;;;;16.81;36.68;100532.19;4991891;28;20069;-62
2023/03/17 02:31:24;;;;;;;0.80;0.80;;;;;;;16.79;36.41;100523.41;4975304;28;20432;-62
2023/03/17 02:33:49;;;;;;;4.63;0.50;;;;;;;16.72;36.08;100524.31;4976218;28;20549;-62
2023/03/17 02:36:15;;;;;;;1.60;0.77;;;;;;;16.73;36.23;100536.78;4991745;28;20051;-62
2023/03/17 02:38:41;;;;;;;0.98;0.65;;;;;;;16.69;36.41;100533.63;4975246;28;20034;-62
2023/03/17 02:41:08;;;;;;;2.55;0.55;;;;;;;16.64;35.21;100524.31;4975293;28;20085;-62
2023/03/17 02:43:34;;;;;;;1.00;0.50;;;;;;;16.53;35.78;100519.25;4975075;28;20038;-62
2023/03/17 02:46:00;;;;;;;2.47;0.95;;;;;;;16.54;36.10;100529.94;4975545;28;20027;-62
2023/03/17 02:48:26;;;;;;;0.82;0.80;;;;;;;16.47;36.65;100528.09;4991894;28;20034;-62
2023/03/17 02:50:51;;;;;;;1.10;0.52;;;;;;;16.38;35.97;100524.56;4991790;28;20045;-62
2023/03/17 02:53:16;;;;;;;2.83;0.60;;;;;;;16.33;36.69;100519.66;4976451;28;20204;-62
2023/03/17 02:55:42;;;;;;;2.05;0.70;;;;;;;16.19;35.66;100504.16;4975508;28;20038;-62
2023/03/17 02:58:08;;;;;;;2.15;0.85;;;;;;;16.22;35.11;100508.38;4991379;28;20027;-62
2023/03/17 03:00:34;;;;;;;1.95;0.65;;;;;;;16.15;36.30;100507.41;4975336;28;20038;-62
2023/03/17 03:02:59;;;;;;;0.50;0.50;;;;;;;16.00;36.19;100492.91;4991117;28;20507;-62
2023/03/17 03:05:25;;;;;;;2.30;0.52;;;;;;;15.94;36.38;100488.22;4974740;28;20034;-62
2023/03/17 03:07:51;;;;;;;1.25;0.70;;;;;;;15.89;36.00;100493.25;4958602;28;20379;-62
2023/03/17 03:10:17;;;;;;;2.45;0.90;;;;;;;15.89;36.35;100504.06;4958657;28;20063;-62
2023/03/17 03:12:43;;;;;;;1.85;1.02;;;;;;;15.83;36.39;100496.69;4959256;28;20030;-62
2023/03/17 03:15:09;;;;;;;1.75;0.68;;;;;;;15.78;36.12;100504.44;4976117;28;20047;-62
2023/03/17 03:17:35;;;;;;;0.82;0.60;;;;;;;15.65;36.21;100494.16;4974862;28;20057;-62
2023/03/17 03:20:01;;;;;;;2.50;0.77;;;;;;;15.66;35.58;100507.47;4974539;28;20469;-62
2023/03/17 03:22:26;;;;;;;1.35;0.77;;;;;;;15.63;37.05;100502.41;4976079;28;20027;-62
2023/03/17 03:24:52;;;;;;;0.82;0.82;;;;;;;15.59;37.21;100503.78;4974583;28;20049;-62
2023/03/17 03:27:17;;;;;;;0.63;0.63;;;;;;;15.53;36.70;100515.25;4974989;28;20034;-62
2023/03/17 03:29:43;;;;;;;2.35;0.88;;;;;;;15.54;35.69;100529.59;4991088;28;20038;-62
2023/03/17 03:32:08;;;;;;;2.40;1.10;;;;;;;15.52;37.44;100527.06;4976015;28;20503;-62
2023/03/17 03:34:34;;;;;;;1.13;0.90;;;;;;;15.44;36.68;100523.47;4990895;28;20446;-62
2023/03/17 03:36:59;;;;;;;0.77;0.50;;;;;;;15.49;35.91;100527.41;4974363;28;20114;-62
2023/03/17 03:39:25;;;;;;;1.85;0.93;;;;;;;15.49;36.70;100532.81;4974743;28;20026;-62
2023/03/17 03:41:50;;;;;;;1.15;0.90;;;;;;;15.39;35.87;100518.59;4974867;28;20540;-62
2023/03/17 03:44:16;;;;;;;0.63;0.63;;;;;;;15.48;37.25;100530.25;4975159;28;20059;-61
2023/03/17 03:46:41;;;;;;;2.97;0.63;;;;;;;15.39;37.42;100507.78;4975506;28;20114;-62
2023/03/17 03:49:07;;;;;;;5.10;0.80;;;;;;;15.36;36.79;100499.19;4990623;28;20391;-62
2023/03/17 03:51:33;;;;;;;1.23;1.23;;;;;;;15.42;37.39;100512.84;4991577;28;20037;-62
2023/03/17 03:54:00;;;;;;;1.05;0.73;;;;;;;15.35;37.56;100513.69;4975530;28;20046;-62
2023/03/17 03:56:25;;;;;;;1.92;0.73;;;;;;;15.36;37.57;100508.13;4974825;28;20042;-62
2023/03/17 03:58:51;;;;;;;2.42;1.33;;;;;;;15.32;37.50;100506.78;4974613;28;20035;-62
2023/03/17 04:01:16;;;;;;;2.70;0.90;;;;;;;15.26;37.57;100512.84;4975703;28;20418;-62
2023/03/17 04:03:42;;;;;;;4.95;0.75;;;;;;;15.31;37.23;100518.59;4977026;28;20134;-63
2023/03/17 04:06:07;;;;;;;3.10;0.90;;;;;;;15.30;38.15;100530.38;4974375;28;20380;-62
2023/03/17 04:08:33;;;;;;;3.92;1.15;;;;;;;15.28;37.56;100529.72;4973405;28;20589;-62
2023/03/17 04:10:58;;;;;;;2.65;1.05;;;;;;;15.27;36.94;100533.41;4959026;28;20039;-62
2023/03/17 04:13:24;;;;;;;1.33;1.17;;;;;;;15.16;37.18;100521.09;4959479;28;20058;-61
2023/03/17 04:15:50;;;;;;;1.95;1.23;;;;;;;15.20;37.29;100532.41;4977956;28;20037;-62
2023/03/17 04:18:15;;;;;;;4.18;0.85;;;;;;;15.17;37.89;100538.13;4975362;28;20557;-62
2023/03/17 04:20:41;;;;;;;1.98;1.17;;;;;;;15.13;37.12;100536.78;4942765;28;20035;-62
2023/03/17 04:23:06;;;;;;;2.92;0.95;;;;;;;15.10;37.25;100542.50;4938027;28;20058;-62
2023/03/17 04:25:32;;;;;;;1.02;0.60;;;;;;;15.05;37.84;100531.34;4937964;28;20090;-62
2023/03/17 04:27:57;;;;;;;2.33;0.90;;;;;;;15.03;38.17;100530.66;4954136;28;20058;-62
2023/03/17 04:30:23;;;;;;;2.17;1.17;;;;;;;15.00;38.60;100529.16;4954456;28;20158;-62
2023/03/17 04:32:48;;;;;;;2.30;0.88;;;;;;;14.95;36.95;100533.34;4938315;28;20511;-62
2023/03/17 04:35:17;;;;;;;2.80;1.10;;;;;;;14.92;37.50;100533.69;4938327;28;20073;-62
2023/03/17 04:37:42;;;;;;;3.45;1.08;;;;;;;14.85;37.44;100535.34;4954139;28;20034;-62
2023/03/17 04:40:09;;;;;;;3.08;1.08;;;;;;;14.83;38.49;100545.44;4922049;28;20031;-62
2023/03/17 04:42:36;;;;;;;1.55;1.00;;;;;;;14.79;39.00;100550.34;4938252;29;20031;-62
2023/03/17 04:45:05;;;;;;;0.93;0.88;;;;;;;14.77;37.41;100552.34;4937966;28;20035;-61
2023/03/17 04:47:31;;;;;;;2.80;0.90;;;;;;;14.74;38.35;100552.66;4937790;28;20404;-62
2023/03/17 04:49:56;;;;;;;1.45;0.88;;;;;;;14.73;38.21;100552.84;4953893;28;20046;-62
2023/03/17 04:52:22;;;;;;;1.73;0.85;;;;;;;14.71;38.88;100553.00;4954025;28;20042;-62
2023/03/17 04:54:47;;;;;;;1.48;0.98;;;;;;;14.66;37.73;100544.53;4938162;29;20070;-62
2023/03/17 04:57:13;;;;;;;2.50;0.80;;;;;;;14.63;38.45;100542.16;4953927;28;20464;-62
2023/03/17 04:59:38;;;;;;;1.17;0.73;;;;;;;14.62;38.49;100559.38;4937604;28;20031;-62
2023/03/17 05:02:03;;;;;;;5.25;1.38;;;;;;;14.59;39.07;100562.38;4955440;28;20044;-62
2023/03/17 05:04:29;;;;;;;5.05;1.45;;;;;;;14.51;38.24;100547.03;4937897;28;20039;-62
2023/03/17 05:06:57;;;;;;;1.70;1.33;;;;;;;14.54;38.25;100546.66;4938037;28;20406;-62
2023/03/17 05:09:23;;;;;;;3.50;1.23;;;;;;;14.53;37.76;100544.16;4938705;29;20034;-61
2023/03/17 05:11:48;;;;;;;3.05;1.15;;;;;;;14.49;38.66;100538.22;4937727;28;20041;-61
2023/03/17 05:14:14;;;;;;;1.63;1.40;;;;;;;14.39;39.00;100521.34;4955011;28;20050;-62
2023/03/17 05:16:39;;;;;;;2.13;1.38;;;;;;;14.41;38.10;100529.25;4937433;28;20031;-62
2023/03/17 05:19:05;;;;;;;2.05;0.82;;;;;;;14.43;38.24;100543.44;4938448;28;20070;-62
2023/03/17 05:21:31;;;;;;;2.28;1.20;;;;;;;14.38;39.72;100541.22;4941878;29;20043;-62
2023/03/17 05:23:56;;;;;;;2.42;1.10;;;;;;;14.36;38.31;100535.16;4974121;28;20035;-62
2023/03/17 05:26:22;;;;;;;3.30;1.25;;;;;;;14.34;38.42;100528.22;4957857;28;20048;-62
2023/03/17 05:28:47;;;;;;;1.52;1.05;;;;;;;14.32;38.82;100528.38;4926280;29;20082;-62
2023/03/17 05:31:12;;;;;;;1.33;1.13;;;;;;;14.23;38.55;100523.94;4941575;28;20091;-62
2023/03/17 05:33:38;;;;;;;7.38;1.73;;;;;;;14.20;39.21;100518.88;4958790;29;20106;-62
2023/03/17 05:36:04;;;;;;;5.47;1.20;;;;;;;14.13;39.56;100506.19;4958750;28;20174;-62
2023/03/17 05:38:29;;;;;;;2.15;1.10;;;;;;;14.26;39.20;100530.84;4957158;28;20035;-61
2023/03/17 05:40:55;;;;;;;5.95;1.10;;;;;;;14.24;38.55;100532.84;4971286;28;20042;-62
2023/03/17 05:43:20;;;;;;;4.90;1.90;;;;;;;14.22;39.23;100530.31;4959198;28;20059;-62
2023/03/17 05:45:49;;;;;;;3.63;1.63;;;;;;;14.21;39.74;100531.31;4993273;28;20070;-62
2023/03/17 05:48:14;;;;;;;2.63;1.20;;;;;;;14.12;38.85;100517.97;4960662;28;20499;-62
2023/03/17 05:50:40;;;;;;;2.40;0.82;;;;;;;14.11;39.62;100519.81;4992640;28;20117;-62
2023/03/17 05:53:05;;;;;;;2.65;1.42;;;;;;;14.17;38.92;100534.50;4976263;28;20038;-62
2023/03/17 05:55:31;;;;;;;2.15;1.40;;;;;;;14.18;38.44;100539.72;4976615;28;20403;-62
2023/03/17 05:57:56;;;;;;;1.27;1.02;;;;;;;14.21;39.74;100533.19;4976634;28;20478;-62
2023/03/17 06:00:22;;;;;;;4.97;1.58;;;;;;;14.22;39.19;100535.72;4976488;28;20041;-62
2023/03/17 06:02:47;;;;;;;2.88;1.00;;;;;;;14.23;39.67;100534.72;4975942;28;20426;-62
2023/03/17 06:05:13;;;;;;;4.18;0.90;;;;;;;14.15;39.47;100518.50;4976089;28;20105;-62
2023/03/17 06:07:40;;;;;;;6.28;1.23;;;;;;;14.22;38.94;100533.00;4971868;28;20450;-62
2023/03/17 06:10:06;;;;;;;1.55;1.10;;;;;;;14.13;39.61;100517.81;4956691;28;20407;-62
2023/03/17 06:12:31;;;;;;;4.45;1.30;;;;;;;14.21;39.45;100543.97;4975008;28;20030;-62
2023/03/17 06:14:57;;;;;;;1.63;1.23;;;;;;;14.21;39.49;100538.56;4975251;28;20094;-62
2023/03/17 06:17:22;;;;;;;5.78;1.50;;;;;;;14.20;40.07;100532.34;4975844;28;20050;-62
2023/03/17 06:19:48;;;;;;;1.50;1.13;;;;;;;14.13;39.10;100525.88;4953098;28;20039;-61
2023/03/17 06:22:13;;;;;;;3.83;1.50;;;;;;;14.23;39.24;100545.50;4952626;28;20066;-62
2023/03/17 06:24:39;;;;;;;3.05;1.48;;;;;;;14.17;38.74;100531.81;4975605;28;20116;-62
2023/03/17 06:27:04;;;;;;;3.42;1.73;;;;;;;14.26;39.37;100542.47;4959711;28;20486;-63
2023/03/17 06:29:29;;;;;;;3.22;1.60;;;;;;;14.28;38.82;100542.31;4974969;28;20038;-63
2023/03/17 06:31:55;;;;;;;1.80;1.27;;;;;;;14.31;39.70;100540.16;4971595;28;20077;-62
2023/03/17 06:34:22;;;;;;;4.25;1.77;;;;;;;14.36;40.16;100542.38;4959529;28;20042;-62
2023/03/17 06:36:47;;;;;;;2.05;1.58;;;;;;;14.39;39.18;100542.91;4959740;28;20034;-62
2023/03/17 06:39:14;;;;;;;2.55;1.52;;;;;;;14.44;40.29;100540.56;4974732;28;20082;-61
2023/03/17 06:41:39;;;;;;;4.88;1.30;;;;;;;14.50;39.76;100539.09;4959519;28;20125;-62
2023/03/17 06:44:06;;;;;;;4.88;1.40;;;;;;;14.58;40.47;100541.81;4957609;28;20039;-61
2023/03/17 06:46:31;;;;;;;6.25;1.55;;;;;;;14.66;40.53;100544.53;4959175;28;20034;-62
2023/03/17 06:48:57;;;;;;;4.07;1.38;;;;;;;14.73;39.45;100544.75;4958991;28;20470;-63
2023/03/17 06:51:23;;;;;;;3.83;1.38;;;;;;;14.85;39.11;100552.34;4975388;28;20034;-62
2023/03/17 06:53:48;;;;;;;3.15;1.52;;;;;;;14.91;40.50;100543.63;4975049;28;20138;-62
2023/03/17 06:56:14;;;;;;;7.03;1.73;;;;;;;14.99;40.31;100546.34;4976307;28;20031;-62
2023/03/17 06:58:40;;;;;;;2.33;1.50;;;;;;;14.96;39.60;100527.78;4967717;28;20037;-62
2023/03/17 07:01:06;;;;;;;2.58;1.67;;;;;;;15.02;39.52;100518.19;4983857;28;20061;-63
2023/03/17 07:03:32;;;;;;;9.18;2.10;;;;;;;15.27;38.85;100554.19;4975504;28;20483;-62
2023/03/17 07:05:58;;;;;;;6.28;1.60;;;;;;;15.35;39.46;100548.78;4975080;28;20059;-62
2023/03/17 07:08:24;;;;;;;3.15;1.50;;;;;;;15.45;39.91;100544.06;4959065;28;20495;-61
2023/03/17 07:10:50;;;;;;;6.68;1.35;;;;;;;15.53;39.54;100542.25;4975121;28;20031;-62
2023/03/17 07:13:15;;;;;;;2.30;1.35;;;;;;;15.63;39.45;100548.31;4959426;28;20034;-62
2023/03/17 07:15:43;;;;;;;3.35;1.75;;;;;;;15.71;39.30;100542.94;4976235;28;20077;-62
2023/03/17 07:18:09;;;;;;;2.42;1.30;;;;;;;15.80;40.04;100534.84;4976348;28;20038;-63
2023/03/17 07:20:35;;;;;;;3.83;1.63;;;;;;;15.85;40.59;100538.72;4974647;28;20054;-61
2023/03/17 07:23:01;;;;;;;3.25;1.40;;;;;;;15.93;38.76;100541.41;4974939;28;20031;-62
2023/03/17 07:25:26;;;;;;;5.15;1.70;;;;;;;15.93;39.13;100538.69;4974480;28;20035;-62
2023/03/17 07:27:52;;;;;;;7.80;1.65;;;;;;;16.06;39.16;100541.72;4958471;28;20041;-62
2023/03/17 07:30:18;;;;;;;4.38;1.63;;;;;;;16.12;38.77;100529.38;4974736;28;20027;-62
2023/03/17 07:32:44;;;;;;;5.90;1.42;;;;;;;16.18;39.46;100531.38;4975607;28;20521;-61
2023/03/17 07:35:10;;;;;;;8.32;1.85;;;;;;;16.24;39.30;100538.81;4974258;28;20043;-61
2023/03/17 07:37:35;;;;;;;4.03;1.60;;;;;;;16.26;38.86;100532.22;4958370;28;20403;-62
2023/03/17 07:40:01;;;;;;;6.20;1.60;;;;;;;16.33;40.39;100540.47;4975342;28;20053;-62
2023/03/17 07:42:27;;;;;;;4.30;1.50;;;;;;;16.31;39.85;100528.97;4975718;28;20031;-62
2023/03/17 07:44:53;;;;;;;4.45;1.60;;;;;;;16.48;39.16;100544.13;4942462;28;20057;-62
2023/03/17 07:47:18;;;;;;;3.38;1.25;;;;;;;16.56;40.26;100533.31;4957978;28;20550;-61
2023/03/17 07:49:44;;;;;;;5.88;1.40;;;;;;;16.67;39.83;100529.38;4974103;28;20035;-61
2023/03/17 07:52:10;;;;;;;5.22;1.48;;;;;;;16.78;38.57;100527.13;4974037;28;20038;-61
2023/03/17 07:54:36;;;;;;;2.80;1.83;;;;;;;16.89;40.13;100539.41;4974396;28;20047;-62
2023/03/17 07:57:02;;;;;;;2.42;1.40;;;;;;;16.95;38.73;100521.63;4973946;28;20038;-62
2023/03/17 07:59:28;;;;;;;2.92;1.50;;;;;;;17.15;39.38;100541.81;4973701;28;20138;-61
2023/03/17 08:01:53;;;;;;;2.08;1.70;;;;;;;17.26;39.15;100530.56;4975172;28;20550;-62
2023/03/17 08:04:19;;;;;;;4.43;2.00;;;;;;;17.53;38.65;100532.78;4973676;28;20026;-62
2023/03/17 08:06:45;;;;;;;9.20;1.40;;;;;;;17.69;39.42;100548.91;4974302;28;20034;-62
2023/03/17 08:09:11;;;;;;;3.55;1.90;;;;;;;17.81;38.75;100530.38;4973646;28;20035;-62
2023/03/17 08:11:37;;;;;;;4.55;1.65;;;;;;;18.07;38.51;100540.75;4974794;28;20097;-62
2023/03/17 08:14:04;;;;;;;3.47;1.45;;;;;;;18.18;38.09;100526.75;4973626;28;20034;-62
2023/03/17 08:16:29;;;;;;;3.03;1.80;;;;;;;18.43;38.21;100526.31;4957295;28;20097;-62
2023/03/17 08:18:56;;;;;;;2.83;1.08;;;;;;;18.71;38.15;100507.50;4974818;28;20478;-62
2023/03/17 08:21:21;;;;;;;4.60;1.65;;;;;;;19.08;38.22;100531.78;4975252;28;20054;-62
2023/03/17 08:23:47;;;;;;;6.47;1.63;;;;;;;19.40;38.15;100507.91;4973544;28;20414;-62
2023/03/17 08:26:17;;;;;;;4.60;1.60;;;;;;;19.78;37.69;100512.03;4973446;28;20035;-62
2023/03/17 08:28:43;;;;;;;3.90;1.70;;;;;;;20.24;37.21;100520.50;4957812;28;20507;-62
2023/03/17 08:31:19;;;;;;;5.35;2.75;;;;;;;20.66;37.42;100512.19;4973107;28;20038;-63
2023/03/17 08:33:47;;;;;;;4.82;1.65;;;;;;;21.04;37.50;100507.13;4957889;28;20499;-62
2023/03/17 08:36:13;;;;;;;3.15;1.48;;;;;;;21.35;37.37;100507.47;4973608;28;20505;-62
2023/03/17 08:38:40;;;;;;;2.72;1.40;;;;;;;21.65;37.26;100498.88;4973047;28;20092;-62
2023/03/17 08:41:08;;;;;;;1.40;1.17;;;;;;;21.87;36.55;100500.38;4973308;28;20376;-63
2023/03/17 08:43:35;;;;;;;2.55;1.27;;;;;;;22.20;35.71;100500.34;4973011;28;20077;-62
2023/03/17 08:46:16;;;;;;;2.80;0.95;;;;;;;22.39;35.74;100494.03;4973083;28;20161;-62
2023/03/17 08:48:42;;;;;;;3.67;1.52;;;;;;;22.64;36.49;100499.66;4973423;28;20526;-62
2023/03/17 08:51:08;;;;;;;2.03;1.05;;;;;;;22.74;36.11;100492.66;4974244;28;20146;-62
2023/03/17 08:53:33;;;;;;;2.10;1.10;;;;;;;22.98;35.40;100504.72;4972295;28;20125;-62
2023/03/17 08:56:00;;;;;;;2.40;1.67;;;;;;;23.05;35.24;100490.00;4972886;28;20042;-62
2023/03/17 08:58:25;;;;;;;3.83;1.23;;;;;;;23.22;35.34;100501.25;4973009;28;20038;-63
2023/03/17 09:00:51;;;;;;;4.68;1.05;;;;;;;23.35;34.94;100484.75;4972694;28;20034;-63
2023/03/17 09:03:17;;;;;;;2.75;1.50;;;;;;;23.40;34.98;100471.28;4974473;28;20026;-63
2023/03/17 09:05:42;;;;;;;1.65;1.48;;;;;;;23.60;33.82;100484.81;4972909;28;20031;-63
2023/03/17 09:08:09;;;;;;;4.60;1.10;;;;;;;23.77;34.38;100478.59;4972747;28;20035;-62
2023/03/17 09:10:35;;;;;;;2.65;1.27;;;;;;;24.00;34.18;100482.59;4956370;28;20034;-62
2023/03/17 09:13:03;;;;;;;1.50;1.30;;;;;;;24.15;33.70;100485.81;4956602;28;20403;-62
2023/03/17 09:15:30;;;;;;;2.80;1.30;;;;;;;24.08;33.53;100474.09;4973101;28;20031;-62
2023/03/17 09:17:55;;;;;;;2.20;1.40;;;;;;;24.33;33.84;100483.13;4956762;28;20057;-62
2023/03/17 09:20:21;;;;;;;4.55;1.35;;;;;;;24.58;33.49;100486.63;4972838;28;20062;-62
2023/03/17 09:22:48;;;;;;;2.40;1.17;;;;;;;24.66;33.10;100485.47;4972745;28;20035;-62
2023/03/17 09:25:16;;;;;;;3.08;1.33;;;;;;;24.62;32.75;100470.56;4956935;28;20487;-62
2023/03/17 09:27:42;;;;;;;5.28;1.58;;;;;;;24.78;32.79;100497.34;4973006;28;20027;-62
2023/03/17 09:30:09;;;;;;;2.25;1.30;;;;;;;24.75;32.97;100504.13;4972625;28;20585;-62
2023/03/17 09:32:36;;;;;;;1.92;1.10;;;;;;;24.94;32.87;100506.84;4972768;28;20038;-63
2023/03/17 09:35:04;;;;;;;1.35;1.25;;;;;;;25.31;32.51;100502.97;4972534;28;20089;-62
2023/03/17 09:37:29;;;;;;;1.73;1.45;;;;;;;25.56;32.14;100500.94;4941398;28;20038;-63
2023/03/17 09:39:56;;;;;;;5.68;1.35;;;;;;;25.79;31.70;100501.00;4972539;28;20027;-63
2023/03/17 09:43:00;;;;;;;2.30;0.88;;;;;;;26.19;31.63;100494.81;4974134;28;20019;-62
2023/03/17 09:45:33;;;;;;;3.00;1.73;;;;;;;26.94;31.41;100512.19;4972564;28;20113;-64
2023/03/17 09:48:05;;;;;;;7.40;1.42;;;;;;;28.45;28.92;100511.31;4956241;28;20030;-64
2023/03/17 09:50:41;;;;;;;6.07;1.27;;;;;;;29.40;28.72;100504.25;4972469;28;20039;-63
2023/03/17 09:53:14;;;;;;;3.33;1.75;;;;;;;28.69;29.38;100494.31;4956307;28;20035;-64
2023/03/17 09:55:40;;;;;;;2.78;1.20;;;;;;;27.95;29.16;100483.75;4972289;28;20051;-63
2023/03/17 09:58:09;;;;;;;3.00;1.20;;;;;;;27.93;28.98;100499.72;4972115;28;20561;-64
2023/03/17 10:00:34;;;;;;;3.53;1.10;;;;;;;27.66;29.75;100496.81;4972659;28;20529;-64
2023/03/17 10:03:00;;;;;;;2.10;1.50;;;;;;;28.34;28.45;100503.97;4972170;28;20047;-63
2023/03/17 10:05:34;;;;;;;2.45;1.40;;;;;;;28.78;28.68;100500.22;4957645;28;20523;-64
2023/03/17 10:08:05;;;;;;;3.40;1.05;;;;;;;28.85;28.92;100506.34;4975929;28;20043;-66
2023/03/17 10:10:47;;;;;;;3.00;1.45;;;;;;;28.95;28.10;100500.13;4976966;28;20038;-65
2023/03/17 10:13:35;;;;;;;4.60;1.40;;;;;;;29.28;27.61;100488.94;4975716;28;20041;-63
2023/03/17 10:16:13;;;;;;;1.75;0.90;;;;;;;29.42;28.17;100496.56;4976840;28;20391;-65
2023/03/17 10:18:59;;;;;;;3.85;1.30;;;;;;;29.95;27.96;100492.09;4975955;28;20037;-64
2023/03/17 10:21:28;;;;;;;4.20;1.60;;;;;;;30.39;27.45;100488.00;4975516;28;20133;-65
2023/03/17 10:23:54;;;;;;;1.70;1.08;;;;;;;30.77;26.91;100488.72;4976743;28;20034;-63
2023/03/17 10:26:29;;;;;;;3.05;1.35;;;;;;;30.91;26.35;100481.56;4975376;28;20035;-64
2023/03/17 10:28:56;;;;;;;3.17;1.08;;;;;;;30.25;26.86;100459.13;4975387;28;20043;-64
2023/03/17 10:31:31;;;;;;;3.67;1.17;;;;;;;29.72;26.97;100484.13;4975508;28;20030;-63
2023/03/17 10:34:10;;;;;;;2.13;1.30;;;;;;;29.08;27.83;100470.22;4975347;28;20077;-63
2023/03/17 10:36:41;;;;;;;4.68;1.20;;;;;;;28.60;28.28;100483.94;4975701;28;20035;-64
2023/03/17 10:39:08;;;;;;;3.00;1.20;;;;;;;28.24;28.41;100488.13;4975103;28;20043;-64
2023/03/17 10:41:37;;;;;;;2.90;1.30;;;;;;;28.04;28.60;100482.28;4959108;28;20066;-63
2023/03/17 10:44:15;;;;;;;3.58;1.15;;;;;;;27.94;27.88;100477.44;4958842;28;20073;-63
2023/03/17 10:46:40;;;;;;;2.15;0.90;;;;;;;27.66;28.27;100472.03;4958812;28;20104;-64
2023/03/17 10:49:15;;;;;;;3.13;1.08;;;;;;;27.29;28.68;100474.38;4942902;28;20394;-63
2023/03/17 10:51:45;;;;;;;3.67;1.08;;;;;;;27.06;28.99;100464.31;4975350;28;20035;-63
2023/03/17 10:54:18;;;;;;;3.78;0.90;;;;;;;27.08;28.66;100467.63;4974737;28;20509;-62
2023/03/17 10:56:47;;;;;;;1.92;1.30;;;;;;;27.01;29.12;100464.22;4974923;28;20046;-63
2023/03/17 10:59:20;;;;;;;2.53;1.02;;;;;;;27.52;27.51;100466.03;4974930;28;20038;-64
2023/03/17 11:01:50;;;;;;;1.73;1.23;;;;;;;27.42;28.55;100457.56;4958429;28;20507;-63
2023/03/17 11:04:29;;;;;;;1.52;1.02;;;;;;;27.35;27.94;100456.03;4958613;28;20026;-63
2023/03/17 11:06:57;;;;;;;2.75;1.05;;;;;;;27.09;28.70;100457.47;4974850;28;20034;-63
2023/03/17 11:09:23;;;;;;;1.95;1.17;;;;;;;27.24;29.18;100445.94;4959160;28;20023;-63
2023/03/17 11:12:00;;;;;;;3.20;1.20;;;;;;;27.74;27.99;100444.06;4974682;28;20050;-63
2023/03/17 11:14:27;;;;;;;3.42;1.80;;;;;;;28.55;27.75;100450.78;4974648;28;20035;-64
2023/03/17 11:17:32;;;;;;;4.03;1.10;;;;;;;29.25;27.12;100448.91;4957857;28;20039;-64
2023/03/17 11:20:04;;;;;;;3.70;1.75;;;;;;;30.01;26.47;100441.28;4952694;28;20411;-65
2023/03/17 11:22:40;;;;;;;2.17;1.27;;;;;;;30.35;26.47;100444.50;4975686;28;20042;-66
2023/03/17 11:25:24;;;;;;;1.77;1.05;;;;;;;30.84;26.08;100440.34;4974464;28;20764;-65